Terminal Aerodrome Forecast
Issued by NWS

Home | Current Version | Previous Version | Text Only | Print | Product List | Glossary On
Versions: 1 2 3 4 5 6 7 8 9 10 11 12 13 14 15 16 17 18 19 20
000
FTUS41 KCLE 271200 AAA
TAFFDY
TAF AMD
KFDY 271232Z 2713/2812 00000KT 3SM BR SCT002
      TEMPO 2713/2714 2SM BR BKN004
     FM271400 01006KT P6SM BKN015
     FM271900 01006KT P6SM SCT030
     FM280000 02004KT P6SM SCT250=

USA.gov is the U.S. government's official web portal to all federal, state and local government web resources and services.